sensor_id;sensor_type;location;lat;lon;timestamp;P1;durP1;ratioP1;P2;durP2;ratioP2
49340;SDS011;35209;51.050;13.678;2022-10-28T00:02:15;19.52;;;17.60;;
49340;SDS011;35209;51.050;13.678;2022-10-28T00:07:16;20.60;;;18.95;;
49340;SDS011;35209;51.050;13.678;2022-10-28T00:12:18;21.67;;;19.63;;
49340;SDS011;35209;51.050;13.678;2022-10-28T00:17:19;20.52;;;18.48;;
49340;SDS011;35209;51.050;13.678;2022-10-28T00:22:21;21.58;;;19.80;;
49340;SDS011;35209;51.050;13.678;2022-10-28T00:27:23;21.33;;;18.50;;
49340;SDS011;35209;51.050;13.678;2022-10-28T00:32:27;20.38;;;18.67;;
49340;SDS011;35209;51.050;13.678;2022-10-28T00:37:29;18.48;;;17.05;;
49340;SDS011;35209;51.050;13.678;2022-10-28T00:42:31;19.55;;;17.83;;
49340;SDS011;35209;51.050;13.678;2022-10-28T00:47:38;19.83;;;18.13;;
49340;SDS011;35209;51.050;13.678;2022-10-28T00:52:59;20.60;;;18.80;;
49340;SDS011;35209;51.050;13.678;2022-10-28T00:58:05;20.17;;;18.23;;
49340;SDS011;35209;51.050;13.678;2022-10-28T01:03:08;20.02;;;17.90;;
49340;SDS011;35209;51.050;13.678;2022-10-28T01:08:10;19.98;;;18.35;;
49340;SDS011;35209;51.050;13.678;2022-10-28T01:13:19;19.48;;;17.63;;
49340;SDS011;35209;51.050;13.678;2022-10-28T01:29:33;20.65;;;18.25;;
49340;SDS011;35209;51.050;13.678;2022-10-28T01:34:49;19.52;;;18.00;;
49340;SDS011;35209;51.050;13.678;2022-10-28T01:40:15;21.00;;;18.75;;
49340;SDS011;35209;51.050;13.678;2022-10-28T01:45:24;20.42;;;18.60;;
49340;SDS011;35209;51.050;13.678;2022-10-28T01:55:39;20.58;;;18.83;;
49340;SDS011;35209;51.050;13.678;2022-10-28T02:00:45;21.25;;;19.65;;
49340;SDS011;35209;51.050;13.678;2022-10-28T02:05:48;21.52;;;19.67;;
49340;SDS011;35209;51.050;13.678;2022-10-28T02:11:03;21.60;;;20.00;;
49340;SDS011;35209;51.050;13.678;2022-10-28T02:16:27;21.65;;;19.58;;
49340;SDS011;35209;51.050;13.678;2022-10-28T02:27:22;22.48;;;20.35;;
49340;SDS011;35209;51.050;13.678;2022-10-28T02:32:37;23.38;;;21.13;;
49340;SDS011;35209;51.050;13.678;2022-10-28T02:37:43;24.65;;;22.08;;
49340;SDS011;35209;51.050;13.678;2022-10-28T02:42:51;24.35;;;22.15;;
49340;SDS011;35209;51.050;13.678;2022-10-28T02:47:57;24.42;;;22.25;;
49340;SDS011;35209;51.050;13.678;2022-10-28T02:53:10;23.42;;;21.35;;
49340;SDS011;35209;51.050;13.678;2022-10-28T02:58:21;23.93;;;21.67;;
49340;SDS011;35209;51.050;13.678;2022-10-28T03:03:23;24.70;;;22.73;;
49340;SDS011;35209;51.050;13.678;2022-10-28T03:08:25;25.48;;;23.10;;
49340;SDS011;35209;51.050;13.678;2022-10-28T03:13:26;24.30;;;22.27;;
49340;SDS011;35209;51.050;13.678;2022-10-28T03:18:28;23.45;;;21.90;;
49340;SDS011;35209;51.050;13.678;2022-10-28T03:23:29;26.90;;;23.35;;
49340;SDS011;35209;51.050;13.678;2022-10-28T03:28:31;23.48;;;21.58;;
49340;SDS011;35209;51.050;13.678;2022-10-28T03:33:33;26.27;;;22.48;;
49340;SDS011;35209;51.050;13.678;2022-10-28T03:38:34;25.02;;;23.10;;
49340;SDS011;35209;51.050;13.678;2022-10-28T03:43:36;26.38;;;23.55;;
49340;SDS011;35209;51.050;13.678;2022-10-28T03:48:37;24.75;;;22.65;;
49340;SDS011;35209;51.050;13.678;2022-10-28T03:53:39;25.40;;;23.13;;
49340;SDS011;35209;51.050;13.678;2022-10-28T03:58:41;25.98;;;23.35;;
49340;SDS011;35209;51.050;13.678;2022-10-28T04:03:42;29.75;;;25.30;;
49340;SDS011;35209;51.050;13.678;2022-10-28T04:08:44;27.30;;;24.65;;
49340;SDS011;35209;51.050;13.678;2022-10-28T04:13:46;26.95;;;24.58;;
49340;SDS011;35209;51.050;13.678;2022-10-28T04:18:47;28.13;;;25.10;;
49340;SDS011;35209;51.050;13.678;2022-10-28T04:23:49;29.77;;;26.65;;
49340;SDS011;35209;51.050;13.678;2022-10-28T04:28:51;30.25;;;27.05;;
49340;SDS011;35209;51.050;13.678;2022-10-28T04:33:52;31.13;;;27.98;;
49340;SDS011;35209;51.050;13.678;2022-10-28T04:38:54;30.30;;;27.15;;
49340;SDS011;35209;51.050;13.678;2022-10-28T04:43:55;30.80;;;26.80;;
49340;SDS011;35209;51.050;13.678;2022-10-28T04:48:57;31.90;;;28.27;;
49340;SDS011;35209;51.050;13.678;2022-10-28T04:53:59;32.38;;;28.58;;
49340;SDS011;35209;51.050;13.678;2022-10-28T04:59:01;37.67;;;27.08;;
49340;SDS011;35209;51.050;13.678;2022-10-28T05:04:02;33.78;;;28.60;;
49340;SDS011;35209;51.050;13.678;2022-10-28T05:09:04;30.23;;;27.40;;
49340;SDS011;35209;51.050;13.678;2022-10-28T05:14:06;33.33;;;29.42;;
49340;SDS011;35209;51.050;13.678;2022-10-28T05:19:07;33.00;;;27.65;;
49340;SDS011;35209;51.050;13.678;2022-10-28T05:24:09;45.40;;;28.60;;
49340;SDS011;35209;51.050;13.678;2022-10-28T05:29:11;39.30;;;29.70;;
49340;SDS011;35209;51.050;13.678;2022-10-28T05:34:12;36.67;;;29.23;;
49340;SDS011;35209;51.050;13.678;2022-10-28T05:39:14;43.13;;;30.27;;
49340;SDS011;35209;51.050;13.678;2022-10-28T05:44:15;34.25;;;30.20;;
49340;SDS011;35209;51.050;13.678;2022-10-28T05:49:17;41.00;;;29.70;;
49340;SDS011;35209;51.050;13.678;2022-10-28T05:54:20;36.28;;;29.02;;
49340;SDS011;35209;51.050;13.678;2022-10-28T05:59:22;45.13;;;30.60;;
49340;SDS011;35209;51.050;13.678;2022-10-28T06:04:23;34.88;;;29.38;;
49340;SDS011;35209;51.050;13.678;2022-10-28T06:09:31;37.47;;;28.95;;
49340;SDS011;35209;51.050;13.678;2022-10-28T06:14:35;33.58;;;27.65;;
49340;SDS011;35209;51.050;13.678;2022-10-28T06:19:36;31.70;;;26.73;;
49340;SDS011;35209;51.050;13.678;2022-10-28T06:24:38;29.48;;;26.40;;
49340;SDS011;35209;51.050;13.678;2022-10-28T06:29:39;30.25;;;25.85;;
49340;SDS011;35209;51.050;13.678;2022-10-28T06:34:41;29.40;;;26.42;;
49340;SDS011;35209;51.050;13.678;2022-10-28T06:39:43;28.52;;;25.33;;
49340;SDS011;35209;51.050;13.678;2022-10-28T06:44:45;30.58;;;25.20;;
49340;SDS011;35209;51.050;13.678;2022-10-28T06:49:47;27.40;;;24.13;;
49340;SDS011;35209;51.050;13.678;2022-10-28T06:54:49;28.75;;;24.80;;
49340;SDS011;35209;51.050;13.678;2022-10-28T06:59:50;26.48;;;24.08;;
49340;SDS011;35209;51.050;13.678;2022-10-28T07:04:52;23.65;;;21.58;;
49340;SDS011;35209;51.050;13.678;2022-10-28T07:09:53;24.00;;;21.92;;
49340;SDS011;35209;51.050;13.678;2022-10-28T07:14:55;24.83;;;22.20;;
49340;SDS011;35209;51.050;13.678;2022-10-28T07:19:56;22.83;;;20.77;;
49340;SDS011;35209;51.050;13.678;2022-10-28T07:24:58;22.88;;;20.98;;
49340;SDS011;35209;51.050;13.678;2022-10-28T07:29:59;20.55;;;18.80;;
49340;SDS011;35209;51.050;13.678;2022-10-28T07:35:01;21.17;;;19.40;;
49340;SDS011;35209;51.050;13.678;2022-10-28T07:40:03;20.10;;;18.45;;
49340;SDS011;35209;51.050;13.678;2022-10-28T07:45:06;24.45;;;18.25;;
49340;SDS011;35209;51.050;13.678;2022-10-28T07:50:08;20.48;;;18.50;;
49340;SDS011;35209;51.050;13.678;2022-10-28T07:55:11;18.65;;;17.05;;
49340;SDS011;35209;51.050;13.678;2022-10-28T08:00:12;17.13;;;15.70;;
49340;SDS011;35209;51.050;13.678;2022-10-28T08:05:14;16.85;;;15.55;;
49340;SDS011;35209;51.050;13.678;2022-10-28T08:10:16;15.95;;;14.48;;
49340;SDS011;35209;51.050;13.678;2022-10-28T08:15:18;16.05;;;14.70;;
49340;SDS011;35209;51.050;13.678;2022-10-28T08:20:22;14.30;;;13.15;;
49340;SDS011;35209;51.050;13.678;2022-10-28T08:25:24;14.70;;;13.55;;
49340;SDS011;35209;51.050;13.678;2022-10-28T08:30:26;15.52;;;14.13;;
49340;SDS011;35209;51.050;13.678;2022-10-28T08:35:27;14.20;;;12.93;;
49340;SDS011;35209;51.050;13.678;2022-10-28T08:41:16;13.27;;;12.07;;
49340;SDS011;35209;51.050;13.678;2022-10-28T08:56:48;11.75;;;10.85;;
49340;SDS011;35209;51.050;13.678;2022-10-28T09:01:52;11.88;;;10.68;;
49340;SDS011;35209;51.050;13.678;2022-10-28T09:07:00;11.88;;;10.70;;
49340;SDS011;35209;51.050;13.678;2022-10-28T09:12:18;12.93;;;10.50;;
49340;SDS011;35209;51.050;13.678;2022-10-28T09:23:13;10.70;;;9.80;;
49340;SDS011;35209;51.050;13.678;2022-10-28T09:33:50;9.02;;;8.32;;
49340;SDS011;35209;51.050;13.678;2022-10-28T09:38:54;10.43;;;9.52;;
49340;SDS011;35209;51.050;13.678;2022-10-28T09:44:05;10.95;;;9.82;;
49340;SDS011;35209;51.050;13.678;2022-10-28T09:49:15;10.85;;;9.80;;
49340;SDS011;35209;51.050;13.678;2022-10-28T09:54:25;10.10;;;9.30;;
49340;SDS011;35209;51.050;13.678;2022-10-28T09:59:33;10.18;;;9.00;;
49340;SDS011;35209;51.050;13.678;2022-10-28T10:04:35;9.68;;;8.77;;
49340;SDS011;35209;51.050;13.678;2022-10-28T10:09:37;8.98;;;8.27;;
49340;SDS011;35209;51.050;13.678;2022-10-28T10:14:49;9.05;;;8.32;;
49340;SDS011;35209;51.050;13.678;2022-10-28T10:20:02;8.70;;;7.90;;
49340;SDS011;35209;51.050;13.678;2022-10-28T10:25:48;9.43;;;8.70;;
49340;SDS011;35209;51.050;13.678;2022-10-28T10:30:33;9.50;;;8.60;;
49340;SDS011;35209;51.050;13.678;2022-10-28T10:35:51;9.00;;;8.15;;
49340;SDS011;35209;51.050;13.678;2022-10-28T10:41:00;8.05;;;7.32;;
49340;SDS011;35209;51.050;13.678;2022-10-28T10:46:12;7.65;;;6.93;;
49340;SDS011;35209;51.050;13.678;2022-10-28T10:51:22;7.53;;;6.88;;
49340;SDS011;35209;51.050;13.678;2022-10-28T10:56:27;10.23;;;7.28;;
49340;SDS011;35209;51.050;13.678;2022-10-28T11:01:32;7.10;;;6.60;;
49340;SDS011;35209;51.050;13.678;2022-10-28T11:11:42;7.07;;;6.47;;
49340;SDS011;35209;51.050;13.678;2022-10-28T11:38:33;7.38;;;6.88;;
49340;SDS011;35209;51.050;13.678;2022-10-28T11:43:51;7.82;;;7.22;;
49340;SDS011;35209;51.050;13.678;2022-10-28T12:00:00;7.53;;;6.88;;
49340;SDS011;35209;51.050;13.678;2022-10-28T12:05:10;8.32;;;7.53;;
49340;SDS011;35209;51.050;13.678;2022-10-28T12:10:37;7.95;;;7.18;;
49340;SDS011;35209;51.050;13.678;2022-10-28T12:16:00;8.85;;;7.90;;
49340;SDS011;35209;51.050;13.678;2022-10-28T12:26:41;9.07;;;8.40;;
49340;SDS011;35209;51.050;13.678;2022-10-28T12:31:48;9.10;;;8.18;;
49340;SDS011;35209;51.050;13.678;2022-10-28T12:37:03;9.63;;;8.82;;
49340;SDS011;35209;51.050;13.678;2022-10-28T12:42:18;9.13;;;8.23;;
49340;SDS011;35209;51.050;13.678;2022-10-28T12:47:29;10.52;;;9.52;;
49340;SDS011;35209;51.050;13.678;2022-10-28T12:58:11;10.40;;;9.50;;
49340;SDS011;35209;51.050;13.678;2022-10-28T13:03:18;10.35;;;9.35;;
49340;SDS011;35209;51.050;13.678;2022-10-28T13:14:03;11.52;;;10.52;;
49340;SDS011;35209;51.050;13.678;2022-10-28T13:19:36;11.53;;;10.63;;
49340;SDS011;35209;51.050;13.678;2022-10-28T13:29:48;11.63;;;10.38;;
49340;SDS011;35209;51.050;13.678;2022-10-28T13:34:52;11.13;;;10.23;;
49340;SDS011;35209;51.050;13.678;2022-10-28T13:39:54;10.75;;;9.82;;
49340;SDS011;35209;51.050;13.678;2022-10-28T14:05:21;10.85;;;9.90;;
49340;SDS011;35209;51.050;13.678;2022-10-28T14:37:46;11.57;;;9.88;;
49340;SDS011;35209;51.050;13.678;2022-10-28T14:53:35;10.85;;;9.95;;
49340;SDS011;35209;51.050;13.678;2022-10-28T14:58:40;12.20;;;11.20;;
49340;SDS011;35209;51.050;13.678;2022-10-28T15:03:44;13.55;;;10.77;;
49340;SDS011;35209;51.050;13.678;2022-10-28T15:08:48;15.38;;;11.85;;
49340;SDS011;35209;51.050;13.678;2022-10-28T15:13:50;14.68;;;12.52;;
49340;SDS011;35209;51.050;13.678;2022-10-28T15:18:53;12.90;;;11.45;;
49340;SDS011;35209;51.050;13.678;2022-10-28T15:24:01;12.60;;;11.40;;
49340;SDS011;35209;51.050;13.678;2022-10-28T15:29:05;13.00;;;11.23;;
49340;SDS011;35209;51.050;13.678;2022-10-28T15:34:18;13.55;;;12.43;;
49340;SDS011;35209;51.050;13.678;2022-10-28T15:39:21;14.13;;;12.82;;
49340;SDS011;35209;51.050;13.678;2022-10-28T15:49:38;14.07;;;12.98;;
49340;SDS011;35209;51.050;13.678;2022-10-28T15:54:54;14.05;;;12.90;;
49340;SDS011;35209;51.050;13.678;2022-10-28T16:10:34;16.33;;;14.73;;
49340;SDS011;35209;51.050;13.678;2022-10-28T16:15:44;15.00;;;13.57;;
49340;SDS011;35209;51.050;13.678;2022-10-28T16:20:55;19.33;;;15.35;;
49340;SDS011;35209;51.050;13.678;2022-10-28T16:25:59;14.77;;;13.45;;
49340;SDS011;35209;51.050;13.678;2022-10-28T16:31:01;16.13;;;14.73;;
49340;SDS011;35209;51.050;13.678;2022-10-28T16:36:03;15.90;;;14.50;;
49340;SDS011;35209;51.050;13.678;2022-10-28T16:41:05;16.08;;;14.50;;
49340;SDS011;35209;51.050;13.678;2022-10-28T16:46:11;15.13;;;13.73;;
49340;SDS011;35209;51.050;13.678;2022-10-28T16:51:14;16.20;;;14.50;;
49340;SDS011;35209;51.050;13.678;2022-10-28T16:56:17;15.45;;;14.23;;
49340;SDS011;35209;51.050;13.678;2022-10-28T17:01:19;17.35;;;15.93;;
49340;SDS011;35209;51.050;13.678;2022-10-28T17:06:22;16.52;;;15.13;;
49340;SDS011;35209;51.050;13.678;2022-10-28T17:11:24;16.95;;;15.38;;
49340;SDS011;35209;51.050;13.678;2022-10-28T17:16:26;16.92;;;15.45;;
49340;SDS011;35209;51.050;13.678;2022-10-28T17:21:27;18.00;;;16.45;;
49340;SDS011;35209;51.050;13.678;2022-10-28T17:26:29;18.15;;;16.55;;
49340;SDS011;35209;51.050;13.678;2022-10-28T17:31:30;17.58;;;16.27;;
49340;SDS011;35209;51.050;13.678;2022-10-28T17:36:32;16.65;;;15.35;;
49340;SDS011;35209;51.050;13.678;2022-10-28T17:41:34;17.73;;;16.38;;
49340;SDS011;35209;51.050;13.678;2022-10-28T17:46:35;17.85;;;16.27;;
49340;SDS011;35209;51.050;13.678;2022-10-28T17:51:37;17.30;;;15.70;;
49340;SDS011;35209;51.050;13.678;2022-10-28T17:56:39;23.67;;;21.40;;
49340;SDS011;35209;51.050;13.678;2022-10-28T18:01:42;19.20;;;17.40;;
49340;SDS011;35209;51.050;13.678;2022-10-28T18:06:44;20.20;;;18.48;;
49340;SDS011;35209;51.050;13.678;2022-10-28T18:11:46;16.60;;;15.10;;
49340;SDS011;35209;51.050;13.678;2022-10-28T18:16:47;17.45;;;15.93;;
49340;SDS011;35209;51.050;13.678;2022-10-28T18:21:50;17.90;;;16.15;;
49340;SDS011;35209;51.050;13.678;2022-10-28T18:26:52;18.10;;;16.55;;
49340;SDS011;35209;51.050;13.678;2022-10-28T18:31:55;19.50;;;17.55;;
49340;SDS011;35209;51.050;13.678;2022-10-28T18:36:57;17.65;;;16.05;;
49340;SDS011;35209;51.050;13.678;2022-10-28T18:41:58;17.98;;;16.27;;
49340;SDS011;35209;51.050;13.678;2022-10-28T18:47:00;18.73;;;17.02;;
49340;SDS011;35209;51.050;13.678;2022-10-28T18:52:02;18.83;;;17.23;;
49340;SDS011;35209;51.050;13.678;2022-10-28T18:57:03;18.30;;;16.85;;
49340;SDS011;35209;51.050;13.678;2022-10-28T19:02:05;19.35;;;17.45;;
49340;SDS011;35209;51.050;13.678;2022-10-28T19:07:07;18.30;;;16.25;;
49340;SDS011;35209;51.050;13.678;2022-10-28T19:12:08;17.33;;;15.93;;
49340;SDS011;35209;51.050;13.678;2022-10-28T19:17:10;17.92;;;16.42;;
49340;SDS011;35209;51.050;13.678;2022-10-28T19:22:12;17.90;;;16.17;;
49340;SDS011;35209;51.050;13.678;2022-10-28T19:27:14;18.75;;;17.00;;
49340;SDS011;35209;51.050;13.678;2022-10-28T19:32:15;17.05;;;15.45;;
49340;SDS011;35209;51.050;13.678;2022-10-28T19:37:17;17.65;;;16.33;;
49340;SDS011;35209;51.050;13.678;2022-10-28T19:42:19;18.20;;;16.33;;
49340;SDS011;35209;51.050;13.678;2022-10-28T19:47:20;16.80;;;15.30;;
49340;SDS011;35209;51.050;13.678;2022-10-28T19:52:22;18.02;;;16.48;;
49340;SDS011;35209;51.050;13.678;2022-10-28T19:57:24;16.63;;;15.23;;
49340;SDS011;35209;51.050;13.678;2022-10-28T20:02:26;16.95;;;15.63;;
49340;SDS011;35209;51.050;13.678;2022-10-28T20:07:28;17.80;;;14.98;;
49340;SDS011;35209;51.050;13.678;2022-10-28T20:12:29;14.77;;;13.30;;
49340;SDS011;35209;51.050;13.678;2022-10-28T20:17:31;16.02;;;14.88;;
49340;SDS011;35209;51.050;13.678;2022-10-28T20:22:33;15.18;;;13.98;;
49340;SDS011;35209;51.050;13.678;2022-10-28T20:27:41;15.98;;;14.45;;
49340;SDS011;35209;51.050;13.678;2022-10-28T20:32:43;20.67;;;15.68;;
49340;SDS011;35209;51.050;13.678;2022-10-28T20:37:44;14.98;;;13.85;;
49340;SDS011;35209;51.050;13.678;2022-10-28T20:42:46;16.77;;;15.40;;
49340;SDS011;35209;51.050;13.678;2022-10-28T20:47:48;17.33;;;15.80;;
49340;SDS011;35209;51.050;13.678;2022-10-28T20:52:49;16.50;;;15.20;;
49340;SDS011;35209;51.050;13.678;2022-10-28T20:57:51;18.50;;;16.52;;
49340;SDS011;35209;51.050;13.678;2022-10-28T21:02:53;17.13;;;15.73;;
49340;SDS011;35209;51.050;13.678;2022-10-28T21:07:56;16.23;;;14.70;;
49340;SDS011;35209;51.050;13.678;2022-10-28T21:12:58;18.45;;;16.42;;
49340;SDS011;35209;51.050;13.678;2022-10-28T21:18:00;19.15;;;17.27;;
49340;SDS011;35209;51.050;13.678;2022-10-28T21:23:02;17.42;;;15.85;;
49340;SDS011;35209;51.050;13.678;2022-10-28T21:28:04;16.70;;;15.20;;
49340;SDS011;35209;51.050;13.678;2022-10-28T21:33:06;17.10;;;15.50;;
49340;SDS011;35209;51.050;13.678;2022-10-28T21:38:08;18.52;;;15.82;;
49340;SDS011;35209;51.050;13.678;2022-10-28T21:43:11;16.08;;;14.68;;
49340;SDS011;35209;51.050;13.678;2022-10-28T21:48:12;18.10;;;16.60;;
49340;SDS011;35209;51.050;13.678;2022-10-28T21:53:14;18.40;;;16.70;;
49340;SDS011;35209;51.050;13.678;2022-10-28T21:58:16;19.50;;;17.55;;
49340;SDS011;35209;51.050;13.678;2022-10-28T22:03:18;20.42;;;18.48;;
49340;SDS011;35209;51.050;13.678;2022-10-28T22:08:19;19.42;;;17.80;;
49340;SDS011;35209;51.050;13.678;2022-10-28T22:13:21;16.00;;;14.80;;
49340;SDS011;35209;51.050;13.678;2022-10-28T22:18:22;18.25;;;16.60;;
49340;SDS011;35209;51.050;13.678;2022-10-28T22:23:24;18.25;;;16.17;;
49340;SDS011;35209;51.050;13.678;2022-10-28T22:28:26;18.63;;;16.73;;
49340;SDS011;35209;51.050;13.678;2022-10-28T22:33:27;17.25;;;15.65;;
49340;SDS011;35209;51.050;13.678;2022-10-28T22:38:29;17.48;;;15.90;;
49340;SDS011;35209;51.050;13.678;2022-10-28T22:43:31;17.98;;;16.58;;
49340;SDS011;35209;51.050;13.678;2022-10-28T22:48:33;18.23;;;16.70;;
49340;SDS011;35209;51.050;13.678;2022-10-28T22:53:35;17.38;;;15.98;;
49340;SDS011;35209;51.050;13.678;2022-10-28T22:58:39;18.15;;;16.75;;
49340;SDS011;35209;51.050;13.678;2022-10-28T23:03:41;20.42;;;16.00;;
49340;SDS011;35209;51.050;13.678;2022-10-28T23:08:45;19.83;;;16.67;;
49340;SDS011;35209;51.050;13.678;2022-10-28T23:13:50;18.38;;;16.77;;
49340;SDS011;35209;51.050;13.678;2022-10-28T23:18:53;19.20;;;17.15;;
49340;SDS011;35209;51.050;13.678;2022-10-28T23:23:58;18.48;;;16.70;;
49340;SDS011;35209;51.050;13.678;2022-10-28T23:29:00;21.42;;;19.50;;
49340;SDS011;35209;51.050;13.678;2022-10-28T23:34:02;20.25;;;18.55;;
49340;SDS011;35209;51.050;13.678;2022-10-28T23:39:04;20.17;;;18.05;;
49340;SDS011;35209;51.050;13.678;2022-10-28T23:44:05;17.73;;;16.08;;
49340;SDS011;35209;51.050;13.678;2022-10-28T23:49:07;21.13;;;17.92;;
49340;SDS011;35209;51.050;13.678;2022-10-28T23:54:09;19.50;;;17.77;;
49340;SDS011;35209;51.050;13.678;2022-10-28T23:59:11;19.83;;;17.83;;
